createdAt,value
2018-06-03T00:01:42.790Z,92.10
2018-06-03T00:04:10.370Z,92.30
2018-06-03T00:06:38.337Z,92.50
2018-06-03T00:09:06.002Z,92.60
2018-06-03T00:11:33.603Z,92.90
2018-06-03T00:14:01.141Z,92.70
2018-06-03T00:16:28.713Z,93.00
2018-06-03T00:18:56.284Z,93.20
2018-06-03T00:21:35.229Z,93.30
2018-06-03T00:24:03.697Z,93.20
2018-06-03T00:26:31.237Z,93.10
2018-06-03T00:28:58.790Z,93.00
2018-06-03T00:31:26.359Z,93.20
2018-06-03T00:33:53.893Z,92.80
2018-06-03T00:36:56.198Z,92.90
2018-06-03T00:39:23.749Z,93.10
2018-06-03T00:41:51.281Z,92.60
2018-06-03T00:44:20.974Z,93.00
2018-06-03T00:46:48.521Z,93.10
2018-06-03T00:49:16.114Z,93.20
2018-06-03T00:51:43.954Z,93.30
2018-06-03T00:54:12.402Z,93.60
2018-06-03T00:56:51.263Z,93.30
2018-06-03T00:59:18.897Z,93.00
2018-06-03T01:01:46.477Z,92.80
2018-06-03T01:04:14.769Z,92.90
2018-06-03T01:06:42.351Z,93.10
2018-06-03T01:09:10.261Z,93.00
2018-06-03T01:11:38.083Z,93.30
2018-06-03T01:14:10.050Z,93.00
2018-06-03T01:16:37.898Z,93.20
2018-06-03T01:19:05.449Z,93.50
2018-06-03T01:21:33.031Z,93.60
2018-06-03T01:24:00.690Z,93.60
2018-06-03T01:26:28.595Z,93.80
2018-06-03T01:28:56.143Z,93.90
2018-06-03T01:31:24.159Z,93.90
2018-06-03T01:33:51.697Z,93.90
2018-06-03T01:36:19.285Z,94.00
2018-06-03T01:38:47.098Z,94.30
2018-06-03T01:41:14.714Z,94.30
2018-06-03T01:43:42.564Z,94.30
2018-06-03T01:46:10.143Z,94.30
2018-06-03T01:48:37.693Z,94.30
2018-06-03T01:51:05.394Z,94.60
2018-06-03T01:56:00.611Z,94.40
2018-06-03T01:58:28.137Z,94.40
2018-06-03T02:00:55.709Z,94.50
2018-06-03T02:03:23.234Z,94.50
2018-06-03T02:05:50.806Z,94.60
2018-06-03T02:08:19.111Z,94.70
2018-06-03T02:10:46.653Z,94.80
2018-06-03T02:13:14.614Z,94.70
2018-06-03T02:15:42.195Z,94.60
2018-06-03T02:18:09.723Z,94.70
2018-06-03T02:20:37.349Z,94.80
2018-06-03T02:23:04.928Z,94.80
2018-06-03T02:27:59.982Z,94.90
2018-06-03T02:30:27.763Z,94.80
2018-06-03T02:32:55.333Z,94.60
2018-06-03T02:35:22.914Z,94.80
2018-06-03T02:37:50.442Z,94.90
2018-06-03T02:40:18.046Z,94.80
2018-06-03T02:42:45.603Z,94.80
2018-06-03T02:45:13.527Z,94.80
2018-06-03T02:47:41.731Z,94.80
2018-06-03T02:50:09.802Z,94.70
2018-06-03T02:52:37.473Z,94.80
2018-06-03T02:55:05.091Z,94.70
2018-06-03T02:57:32.691Z,94.80
2018-06-03T03:00:00.225Z,94.80
2018-06-03T03:02:28.718Z,94.90
2018-06-03T03:04:56.704Z,94.90
2018-06-03T03:07:24.334Z,94.90
2018-06-03T03:09:51.881Z,94.90
2018-06-03T03:12:19.458Z,95.10
2018-06-03T03:14:47.002Z,95.00
2018-06-03T03:17:14.662Z,95.10
2018-06-03T03:19:42.321Z,95.00
2018-06-03T03:22:09.887Z,95.00
2018-06-03T03:24:38.492Z,95.10
2018-06-03T03:27:06.057Z,95.00
2018-06-03T03:29:33.614Z,95.10
2018-06-03T03:32:01.870Z,95.00
2018-06-03T03:34:29.473Z,95.00
2018-06-03T03:36:57.172Z,95.10
2018-06-03T03:39:24.749Z,95.00
2018-06-03T03:41:52.341Z,95.00
2018-06-03T03:44:21.919Z,95.00
2018-06-03T03:46:49.499Z,95.00
2018-06-03T03:49:17.454Z,95.00
2018-06-03T03:51:45.046Z,95.00
2018-06-03T03:54:12.905Z,94.90
2018-06-03T03:56:40.449Z,95.00
2018-06-03T03:59:08.121Z,94.80
2018-06-03T04:01:35.691Z,94.90
2018-06-03T04:04:03.486Z,94.70
2018-06-03T04:06:31.055Z,94.80
2018-06-03T04:08:58.602Z,94.80
2018-06-03T04:11:26.191Z,94.80
2018-06-03T04:13:58.901Z,94.70
2018-06-03T04:16:26.558Z,94.60
2018-06-03T04:18:54.110Z,94.70
2018-06-03T04:21:21.805Z,94.70
2018-06-03T04:23:49.350Z,94.80
2018-06-03T04:26:17.975Z,94.70
2018-06-03T04:28:45.522Z,95.00
2018-06-03T04:31:13.058Z,94.40
2018-06-03T04:33:40.653Z,94.40
2018-06-03T04:36:08.260Z,94.40
2018-06-03T04:38:35.817Z,93.90
2018-06-03T04:41:03.491Z,94.10
2018-06-03T04:43:31.079Z,93.90
2018-06-03T04:45:58.997Z,94.00
2018-06-03T04:48:27.013Z,94.10
2018-06-03T04:50:54.672Z,93.90
2018-06-03T04:53:22.217Z,93.80
2018-06-03T04:55:49.892Z,93.50
2018-06-03T04:58:17.468Z,93.30
2018-06-03T05:00:44.998Z,93.20
2018-06-03T05:03:12.606Z,93.40
2018-06-03T05:05:40.158Z,93.70
2018-06-03T05:08:07.790Z,93.70
2018-06-03T05:10:35.341Z,93.60
2018-06-03T05:13:03.149Z,93.70
2018-06-03T05:15:30.697Z,93.30
2018-06-03T05:17:58.362Z,93.40
2018-06-03T05:20:25.893Z,93.90
2018-06-03T05:22:53.609Z,93.40
2018-06-03T05:25:21.222Z,93.20
2018-06-03T05:27:48.827Z,93.10
2018-06-03T05:30:16.385Z,92.80
2018-06-03T05:32:44.321Z,92.60
2018-06-03T05:35:12.857Z,92.50
2018-06-03T05:37:40.389Z,92.70
2018-06-03T05:40:07.975Z,91.90
2018-06-03T05:42:35.615Z,92.10
2018-06-03T05:45:03.210Z,92.20
2018-06-03T05:47:30.775Z,91.90
2018-06-03T05:49:58.356Z,92.10
2018-06-03T05:52:25.921Z,91.40
2018-06-03T05:54:53.588Z,91.60
2018-06-03T05:57:21.153Z,91.60
2018-06-03T05:59:48.998Z,91.90
2018-06-03T06:02:16.563Z,91.70
2018-06-03T06:04:44.425Z,91.50
2018-06-03T06:07:11.986Z,91.30
2018-06-03T06:09:40.314Z,91.40
2018-06-03T06:12:07.869Z,91.70
2018-06-03T06:14:35.424Z,91.40
2018-06-03T06:17:03.205Z,91.90
2018-06-03T06:19:30.893Z,92.30
2018-06-03T06:21:58.426Z,91.80
2018-06-03T06:24:26.105Z,91.60
2018-06-03T06:26:53.630Z,91.30
2018-06-03T06:29:21.195Z,91.10
2018-06-03T06:31:48.731Z,91.10
2018-06-03T06:34:16.338Z,91.30
2018-06-03T06:36:43.865Z,91.00
2018-06-03T06:39:12.141Z,90.90
2018-06-03T06:41:39.706Z,91.30
2018-06-03T06:44:07.296Z,91.20
2018-06-03T06:46:34.841Z,91.10
2018-06-03T06:49:02.406Z,90.60
2018-06-03T06:51:30.194Z,90.50
2018-06-03T06:53:57.814Z,90.40
2018-06-03T06:56:25.355Z,90.50
2018-06-03T06:58:58.953Z,90.10
2018-06-03T07:01:26.665Z,89.70
2018-06-03T07:03:54.230Z,89.00
2018-06-03T07:06:21.904Z,89.30
2018-06-03T07:08:49.782Z,89.20
2018-06-03T07:11:17.429Z,88.30
2018-06-03T07:13:44.970Z,88.20
2018-06-03T07:16:12.558Z,89.00
2018-06-03T07:18:40.144Z,88.10
2018-06-03T07:21:07.689Z,88.10
2018-06-03T07:23:35.222Z,88.40
2018-06-03T07:26:02.879Z,87.70
2018-06-03T07:28:30.444Z,88.00
2018-06-03T07:30:58.021Z,87.60
2018-06-03T07:33:25.552Z,87.80
2018-06-03T07:35:53.123Z,85.90
2018-06-03T07:38:20.703Z,85.20
2018-06-03T07:40:48.231Z,85.50
2018-06-03T07:43:16.090Z,85.40
2018-06-03T07:45:43.634Z,84.30
2018-06-03T07:48:11.264Z,82.70
2018-06-03T07:50:38.834Z,82.60
2018-06-03T07:53:06.374Z,84.60
2018-06-03T07:55:33.967Z,83.40
2018-06-03T07:58:01.647Z,82.70
2018-06-03T08:00:29.214Z,81.00
2018-06-03T08:02:56.841Z,79.50
2018-06-03T08:05:24.414Z,79.20
2018-06-03T08:07:51.957Z,77.50
2018-06-03T08:10:19.607Z,78.60
2018-06-03T08:12:47.430Z,78.70
2018-06-03T08:15:15.002Z,77.50
2018-06-03T08:17:43.498Z,78.00
2018-06-03T08:20:11.847Z,77.40
2018-06-03T08:22:39.363Z,75.30
2018-06-03T08:25:06.980Z,76.80
2018-06-03T08:27:34.497Z,76.90
2018-06-03T08:30:02.079Z,77.10
2018-06-03T08:32:29.774Z,76.20
2018-06-03T08:34:57.286Z,75.50
2018-06-03T08:37:24.821Z,75.90
2018-06-03T08:39:52.502Z,73.00
2018-06-03T08:42:20.045Z,72.20
2018-06-03T08:44:47.839Z,72.80
2018-06-03T08:47:15.383Z,71.10
2018-06-03T08:49:42.904Z,71.50
2018-06-03T08:52:10.479Z,72.90
2018-06-03T08:54:37.949Z,72.90
2018-06-03T08:57:05.582Z,69.90
2018-06-03T08:59:33.093Z,71.30
2018-06-03T09:02:00.609Z,72.00
2018-06-03T09:04:28.116Z,72.90
2018-06-03T09:06:55.666Z,72.20
2018-06-03T09:09:23.191Z,71.20
2018-06-03T09:11:50.780Z,69.50
2018-06-03T09:14:18.310Z,71.60
2018-06-03T09:16:45.854Z,70.70
2018-06-03T09:19:13.645Z,70.70
2018-06-03T09:21:42.193Z,68.50
2018-06-03T09:24:09.750Z,69.50
2018-06-03T09:26:37.276Z,69.30
2018-06-03T09:29:04.824Z,68.60
2018-06-03T09:31:32.455Z,70.30
2018-06-03T09:33:59.983Z,69.90
2018-06-03T09:36:27.630Z,69.00
2018-06-03T09:38:55.161Z,68.50
2018-06-03T09:41:22.713Z,68.50
2018-06-03T09:43:50.247Z,66.30
2018-06-03T09:46:17.787Z,67.30
2018-06-03T09:48:45.311Z,67.70
2018-06-03T09:51:12.990Z,68.90
2018-06-03T09:53:40.526Z,69.80
2018-06-03T09:56:08.245Z,69.90
2018-06-03T09:58:35.806Z,67.30
2018-06-03T10:01:03.341Z,67.80
2018-06-03T10:03:30.865Z,66.60
2018-06-03T10:05:58.418Z,67.50
2018-06-03T10:08:26.035Z,68.20
2018-06-03T10:10:53.605Z,66.60
2018-06-03T10:13:21.138Z,67.70
2018-06-03T10:15:48.654Z,65.20
2018-06-03T10:18:16.233Z,66.00
2018-06-03T10:20:43.933Z,65.20
2018-06-03T10:23:11.496Z,67.40
2018-06-03T10:25:39.042Z,66.20
2018-06-03T10:28:06.619Z,64.30
2018-06-03T10:30:34.336Z,66.30
2018-06-03T10:33:01.914Z,65.80
2018-06-03T10:35:29.450Z,66.20
2018-06-03T10:37:57.075Z,68.00
2018-06-03T10:40:24.602Z,69.00
2018-06-03T10:42:52.145Z,67.10
2018-06-03T10:45:19.721Z,66.90
2018-06-03T10:47:47.275Z,66.50
2018-06-03T10:50:14.927Z,64.80
2018-06-03T10:52:42.582Z,65.50
2018-06-03T10:55:10.149Z,66.60
2018-06-03T10:57:37.717Z,64.40
2018-06-03T11:00:05.378Z,63.20
2018-06-03T11:02:33.001Z,64.40
2018-06-03T11:05:00.525Z,64.70
2018-06-03T11:07:28.075Z,66.70
2018-06-03T11:09:55.745Z,68.90
2018-06-03T11:12:23.271Z,65.60
2018-06-03T11:14:50.789Z,68.20
2018-06-03T11:17:18.378Z,66.60
2018-06-03T11:19:45.920Z,67.50
2018-06-03T11:22:13.554Z,66.40
2018-06-03T11:24:41.177Z,65.70
2018-06-03T11:27:08.961Z,65.20
2018-06-03T11:29:36.762Z,63.20
2018-06-03T11:32:04.285Z,65.20
2018-06-03T11:34:31.891Z,64.10
2018-06-03T11:36:59.406Z,63.50
2018-06-03T11:39:26.949Z,63.20
2018-06-03T11:41:54.706Z,62.70
2018-06-03T11:44:22.222Z,62.80
2018-06-03T11:46:49.885Z,63.80
2018-06-03T11:49:17.422Z,64.90
2018-06-03T11:51:44.938Z,65.20
2018-06-03T11:54:12.488Z,63.40
2018-06-03T11:56:51.401Z,63.20
2018-06-03T11:59:30.756Z,65.00
2018-06-03T12:01:58.275Z,64.40
2018-06-03T12:04:25.841Z,62.30
2018-06-03T12:06:53.359Z,62.40
2018-06-03T12:09:22.302Z,65.00
2018-06-03T12:11:49.851Z,62.30
2018-06-03T12:14:17.385Z,63.30
2018-06-03T12:16:44.975Z,61.20
2018-06-03T12:19:12.646Z,61.10
2018-06-03T12:21:40.494Z,58.20
2018-06-03T12:24:08.066Z,57.90
2018-06-03T12:26:35.602Z,58.50
2018-06-03T12:29:03.183Z,56.60
2018-06-03T12:31:30.782Z,56.90
2018-06-03T12:33:58.346Z,57.50
2018-06-03T12:36:25.949Z,58.00
2018-06-03T12:38:53.566Z,57.50
2018-06-03T12:41:21.114Z,57.00
2018-06-03T12:43:48.773Z,58.70
2018-06-03T12:46:16.318Z,57.90
2018-06-03T12:48:43.825Z,58.00
2018-06-03T12:51:11.373Z,59.00
2018-06-03T12:53:38.929Z,59.40
2018-06-03T12:56:06.615Z,59.70
2018-06-03T12:58:34.142Z,56.60
2018-06-03T13:01:01.693Z,52.00
2018-06-03T13:03:29.214Z,53.10
2018-06-03T13:05:56.777Z,52.50
2018-06-03T13:08:24.334Z,53.10
2018-06-03T13:10:52.107Z,53.20
2018-06-03T13:13:19.796Z,52.10
2018-06-03T13:15:47.470Z,50.30
2018-06-03T13:18:15.067Z,52.70
2018-06-03T13:20:42.938Z,52.80
2018-06-03T13:23:10.662Z,54.10
2018-06-03T13:25:38.381Z,52.40
2018-06-03T13:28:06.161Z,51.90
2018-06-03T13:30:33.746Z,50.90
2018-06-03T13:33:01.315Z,50.40
2018-06-03T13:35:28.894Z,49.30
2018-06-03T13:38:02.955Z,48.80
2018-06-03T13:40:30.581Z,48.60
2018-06-03T13:42:58.217Z,49.50
2018-06-03T13:45:25.909Z,50.40
2018-06-03T13:47:53.676Z,51.80
2018-06-03T13:50:21.385Z,53.30
2018-06-03T13:52:48.956Z,51.30
2018-06-03T13:55:16.661Z,49.40
2018-06-03T13:57:44.258Z,46.90
2018-06-03T14:00:11.884Z,46.00
2018-06-03T14:02:39.553Z,44.90
2018-06-03T14:05:07.145Z,41.90
2018-06-03T14:07:34.697Z,38.70
2018-06-03T14:10:02.236Z,37.10
2018-06-03T14:12:30.815Z,37.60
2018-06-03T14:14:58.410Z,37.00
2018-06-03T14:17:27.294Z,37.20
2018-06-03T14:19:56.478Z,34.20
2018-06-03T14:22:24.157Z,33.90
2018-06-03T14:24:51.696Z,32.30
2018-06-03T14:27:19.238Z,30.80
2018-06-03T14:29:46.875Z,31.20
2018-06-03T14:32:14.534Z,29.60
2018-06-03T14:34:42.161Z,30.40
2018-06-03T14:37:09.755Z,30.30
2018-06-03T14:39:37.266Z,29.90
2018-06-03T14:42:04.786Z,30.00
2018-06-03T14:44:32.475Z,29.40
2018-06-03T14:47:00.006Z,29.00
2018-06-03T14:49:27.591Z,28.80
2018-06-03T14:51:55.112Z,28.40
2018-06-03T14:54:23.314Z,29.30
2018-06-03T14:56:50.828Z,29.90
2018-06-03T14:59:18.621Z,29.80
2018-06-03T15:01:46.171Z,29.40
2018-06-03T15:04:13.778Z,29.80
2018-06-03T15:06:41.336Z,27.90
2018-06-03T15:09:08.895Z,27.30
2018-06-03T15:11:36.458Z,26.70
2018-06-03T15:14:04.150Z,26.20
2018-06-03T15:16:31.686Z,27.60
2018-06-03T15:18:59.334Z,29.00
2018-06-03T15:21:26.877Z,29.30
2018-06-03T15:23:54.481Z,29.30
2018-06-03T15:26:22.042Z,28.10
2018-06-03T15:28:49.654Z,28.00
2018-06-03T15:31:17.206Z,27.00
2018-06-03T15:33:44.774Z,28.00
2018-06-03T15:36:12.308Z,28.40
2018-06-03T15:38:39.850Z,28.90
2018-06-03T15:41:07.358Z,31.50
2018-06-03T15:43:34.922Z,30.10
2018-06-03T15:46:02.979Z,30.00
2018-06-03T15:48:30.517Z,30.00
2018-06-03T15:50:58.087Z,29.40
2018-06-03T15:53:25.744Z,28.50
2018-06-03T15:55:53.375Z,30.10
2018-06-03T15:58:20.960Z,29.50
2018-06-03T16:00:49.238Z,29.10
2018-06-03T16:03:16.798Z,28.80
2018-06-03T16:05:44.422Z,30.10
2018-06-03T16:08:11.965Z,30.20
2018-06-03T16:10:39.518Z,29.40
2018-06-03T16:13:07.497Z,28.90
2018-06-03T16:15:35.153Z,29.30
2018-06-03T16:18:02.695Z,28.70
2018-06-03T16:20:30.262Z,28.00
2018-06-03T16:22:58.629Z,27.80
2018-06-03T16:25:26.309Z,27.50
2018-06-03T16:27:53.817Z,28.50
2018-06-03T16:30:21.555Z,29.00
2018-06-03T16:32:49.322Z,29.70
2018-06-03T16:35:16.965Z,30.00
2018-06-03T16:37:44.624Z,31.50
2018-06-03T16:40:12.287Z,31.40
2018-06-03T16:42:39.798Z,34.70
2018-06-03T16:45:07.414Z,33.70
2018-06-03T16:47:34.930Z,32.40
2018-06-03T16:50:02.502Z,34.80
2018-06-03T16:52:30.026Z,35.60
2018-06-03T16:54:57.790Z,35.40
2018-06-03T16:57:25.364Z,35.40
2018-06-03T16:59:52.986Z,36.90
2018-06-03T17:02:20.517Z,36.90
2018-06-03T17:04:48.474Z,37.50
2018-06-03T17:09:43.602Z,39.90
2018-06-03T17:12:12.315Z,40.30
2018-06-03T17:14:39.946Z,39.80
2018-06-03T17:17:07.485Z,43.30
2018-06-03T17:19:35.022Z,44.10
2018-06-03T17:22:02.602Z,45.20
2018-06-03T17:24:30.138Z,46.80
2018-06-03T17:26:58.761Z,47.60
2018-06-03T17:29:26.312Z,48.80
2018-06-03T17:31:53.909Z,48.20
2018-06-03T17:34:21.591Z,48.60
2018-06-03T17:36:49.131Z,51.10
2018-06-03T17:39:16.880Z,50.50
2018-06-03T17:41:44.428Z,50.20
2018-06-03T17:44:12.350Z,50.50
2018-06-03T17:46:40.330Z,50.60
2018-06-03T17:49:07.854Z,51.10
2018-06-03T17:54:02.886Z,53.40
2018-06-03T17:56:30.431Z,54.30
2018-06-03T17:58:58.237Z,54.40
2018-06-03T18:01:25.785Z,54.60
2018-06-03T18:03:53.513Z,55.10
2018-06-03T18:06:21.018Z,55.30
2018-06-03T18:08:48.582Z,56.00
2018-06-03T18:11:16.179Z,57.30
2018-06-03T18:13:43.826Z,57.00
2018-06-03T18:16:11.350Z,58.00
2018-06-03T18:18:38.924Z,59.10
2018-06-03T18:21:06.540Z,58.30
2018-06-03T18:23:34.097Z,59.10
2018-06-03T18:26:01.642Z,60.40
2018-06-03T18:28:29.902Z,61.60
2018-06-03T18:30:57.641Z,62.00
2018-06-03T18:33:25.837Z,61.70
2018-06-03T18:35:54.102Z,61.60
2018-06-03T18:38:22.354Z,62.70
2018-06-03T18:40:52.598Z,62.50
2018-06-03T18:43:21.933Z,62.90
2018-06-03T18:45:50.399Z,63.50
2018-06-03T18:48:17.957Z,63.90
2018-06-03T18:50:45.485Z,65.30
2018-06-03T18:53:14.190Z,65.90
2018-06-03T18:55:42.312Z,65.60
2018-06-03T18:58:09.869Z,66.40
2018-06-03T19:00:39.385Z,68.80
2018-06-03T19:03:06.977Z,67.90
2018-06-03T19:05:34.542Z,67.90
2018-06-03T19:08:02.522Z,68.30
2018-06-03T19:10:30.074Z,68.80
2018-06-03T19:12:57.909Z,68.50
2018-06-03T19:15:25.471Z,68.90
2018-06-03T19:17:58.933Z,69.70
2018-06-03T19:20:26.525Z,71.60
2018-06-03T19:22:54.150Z,72.90
2018-06-03T19:25:21.684Z,73.60
2018-06-03T19:27:49.361Z,74.30
2018-06-03T19:30:16.986Z,75.30
2018-06-03T19:32:44.521Z,75.00
2018-06-03T19:35:12.059Z,76.50
2018-06-03T19:37:39.609Z,77.30
2018-06-03T19:40:07.145Z,78.70
2018-06-03T19:42:34.773Z,79.20
2018-06-03T19:45:02.318Z,79.30
2018-06-03T19:47:29.849Z,79.80
2018-06-03T19:49:57.434Z,80.20
2018-06-03T19:55:55.367Z,81.00
2018-06-03T19:58:22.946Z,81.80
2018-06-03T20:00:50.538Z,82.10
2018-06-03T20:03:18.064Z,82.40
2018-06-03T20:05:45.614Z,82.30
2018-06-03T20:08:13.182Z,82.60
2018-06-03T20:10:40.722Z,82.10
2018-06-03T20:13:08.506Z,82.60
2018-06-03T20:15:36.331Z,83.30
2018-06-03T20:18:03.867Z,83.80
2018-06-03T20:20:31.502Z,84.20
2018-06-03T20:22:59.170Z,84.60
2018-06-03T20:25:27.098Z,84.60
2018-06-03T20:27:55.806Z,85.20
2018-06-03T20:30:23.823Z,85.00
2018-06-03T20:32:51.772Z,85.40
2018-06-03T20:35:20.423Z,86.70
2018-06-03T20:37:47.942Z,86.80
2018-06-03T20:40:15.493Z,87.30
2018-06-03T20:42:43.080Z,87.20
2018-06-03T20:45:10.734Z,87.50
2018-06-03T20:47:38.260Z,87.60
2018-06-03T20:50:05.833Z,88.10
2018-06-03T20:52:33.509Z,87.80
2018-06-03T20:55:01.251Z,88.00
2018-06-03T20:57:28.866Z,88.30
2018-06-03T20:59:56.503Z,88.20
2018-06-03T21:02:24.043Z,88.40
2018-06-03T21:04:51.574Z,88.70
2018-06-03T21:07:19.095Z,88.60
2018-06-03T21:09:46.595Z,89.20
2018-06-03T21:12:14.169Z,89.10
2018-06-03T21:14:41.693Z,90.10
2018-06-03T21:17:09.234Z,90.00
2018-06-03T21:19:36.801Z,90.20
2018-06-03T21:22:04.402Z,90.30
2018-06-03T21:24:32.045Z,90.40
2018-06-03T21:26:59.592Z,90.50
2018-06-03T21:29:27.115Z,90.60
2018-06-03T21:31:54.643Z,90.70
2018-06-03T21:34:22.225Z,90.80
2018-06-03T21:36:49.853Z,90.90
2018-06-03T21:39:17.502Z,90.80
2018-06-03T21:41:45.018Z,90.80
2018-06-03T21:44:12.546Z,90.90
2018-06-03T21:46:40.101Z,91.00
2018-06-03T21:49:07.665Z,91.10
2018-06-03T21:51:35.229Z,91.20
2018-06-03T21:54:02.941Z,91.00
2018-06-03T21:56:30.537Z,91.30
2018-06-03T21:58:58.076Z,91.20
2018-06-03T22:01:25.714Z,91.30
2018-06-03T22:03:53.255Z,91.20
2018-06-03T22:06:20.769Z,91.30
2018-06-03T22:08:48.295Z,91.40
2018-06-03T22:11:16.022Z,91.40
2018-06-03T22:13:43.571Z,91.50
2018-06-03T22:16:11.093Z,91.70
2018-06-03T22:18:38.649Z,91.60
2018-06-03T22:21:06.178Z,91.60
2018-06-03T22:23:33.715Z,91.80
2018-06-03T22:26:01.246Z,91.50
2018-06-03T22:28:28.778Z,91.60
2018-06-03T22:30:56.598Z,91.50
2018-06-03T22:33:24.130Z,91.60
2018-06-03T22:35:51.682Z,91.70
2018-06-03T22:38:19.206Z,91.90
2018-06-03T22:40:46.750Z,92.10
2018-06-03T22:43:14.415Z,92.20
2018-06-03T22:45:41.946Z,92.10
2018-06-03T22:48:09.449Z,92.10
2018-06-03T22:50:36.965Z,92.20
2018-06-03T22:53:04.594Z,92.20
2018-06-03T22:55:32.537Z,92.10
2018-06-03T22:58:00.054Z,92.30
2018-06-03T23:00:29.511Z,92.40
2018-06-03T23:03:02.771Z,92.40
2018-06-03T23:05:30.386Z,92.50
2018-06-03T23:07:57.943Z,92.60
2018-06-03T23:10:25.505Z,92.70
2018-06-03T23:12:53.087Z,92.80
2018-06-03T23:15:20.925Z,92.80
2018-06-03T23:17:48.442Z,92.70
2018-06-03T23:20:15.982Z,92.60
2018-06-03T23:22:43.512Z,92.70
2018-06-03T23:25:11.073Z,92.70
2018-06-03T23:27:38.601Z,92.50
2018-06-03T23:30:06.256Z,92.30
2018-06-03T23:32:33.789Z,92.80
2018-06-03T23:35:01.463Z,92.90
2018-06-03T23:37:28.981Z,93.00
2018-06-03T23:39:56.517Z,93.10
2018-06-03T23:42:24.071Z,93.10
2018-06-03T23:44:51.633Z,93.20
2018-06-03T23:47:19.433Z,93.10
2018-06-03T23:49:47.017Z,93.20
2018-06-03T23:52:14.709Z,93.00
2018-06-03T23:54:42.258Z,93.00
2018-06-03T23:57:10.001Z,93.00
2018-06-03T23:59:37.538Z,93.00
